createdAt,value
2017-11-10T00:01:16.715Z,28.50
2017-11-10T00:03:44.961Z,26.80
2017-11-10T00:06:14.019Z,30.67
2017-11-10T00:08:43.830Z,29.20
2017-11-10T00:11:11.643Z,28.53
2017-11-10T00:13:40.315Z,28.83
2017-11-10T00:16:08.182Z,30.83
2017-11-10T00:18:36.129Z,27.13
2017-11-10T00:21:04.033Z,28.50
2017-11-10T00:23:31.877Z,29.87
2017-11-10T00:25:59.837Z,28.83
2017-11-10T00:28:27.630Z,28.60
2017-11-10T00:30:55.540Z,28.47
2017-11-10T00:33:23.503Z,28.50
2017-11-10T00:35:51.382Z,28.27
2017-11-10T00:38:19.234Z,26.80
2017-11-10T00:40:47.830Z,24.60
2017-11-10T00:43:15.688Z,26.43
2017-11-10T00:45:44.323Z,26.80
2017-11-10T00:48:12.192Z,27.07
2017-11-10T00:50:40.071Z,25.17
2017-11-10T00:53:07.908Z,26.70
2017-11-10T00:55:35.799Z,24.90
2017-11-10T00:58:03.687Z,27.10
2017-11-10T01:00:31.600Z,26.27
2017-11-10T01:03:00.294Z,27.43
2017-11-10T01:05:28.170Z,25.90
2017-11-10T01:07:56.010Z,27.53
2017-11-10T01:10:23.878Z,28.43
2017-11-10T01:12:51.745Z,29.03
2017-11-10T01:15:19.559Z,27.77
2017-11-10T01:17:47.385Z,27.20
2017-11-10T01:20:15.201Z,27.50
2017-11-10T01:22:43.088Z,27.33
2017-11-10T01:25:10.988Z,27.97
2017-11-10T01:27:38.893Z,25.50
2017-11-10T01:30:06.745Z,25.70
2017-11-10T01:32:34.609Z,25.90
2017-11-10T01:35:03.332Z,24.60
2017-11-10T01:37:31.213Z,24.77
2017-11-10T01:39:59.051Z,29.37
2017-11-10T01:42:26.983Z,27.57
2017-11-10T01:44:54.881Z,26.87
2017-11-10T01:47:22.850Z,25.13
2017-11-10T01:49:54.339Z,26.17
2017-11-10T01:52:22.239Z,25.70
2017-11-10T01:54:50.065Z,23.80
2017-11-10T01:57:18.021Z,25.37
2017-11-10T01:59:45.951Z,24.77
2017-11-10T02:02:13.865Z,26.50
2017-11-10T02:04:41.781Z,26.30
2017-11-10T02:07:09.712Z,23.37
2017-11-10T02:09:37.569Z,25.03
2017-11-10T02:12:05.486Z,25.57
2017-11-10T02:14:33.329Z,25.70
2017-11-10T02:17:01.315Z,24.47
2017-11-10T02:19:29.240Z,24.90
2017-11-10T02:21:57.668Z,26.23
2017-11-10T02:24:25.654Z,25.43
2017-11-10T02:26:53.627Z,24.40
2017-11-10T02:29:21.635Z,26.50
2017-11-10T02:31:50.403Z,26.27
2017-11-10T02:34:18.388Z,24.60
2017-11-10T02:36:47.056Z,26.83
2017-11-10T02:39:14.940Z,25.77
2017-11-10T02:41:46.824Z,25.50
2017-11-10T02:44:14.786Z,25.30
2017-11-10T02:46:42.665Z,22.77
2017-11-10T02:49:10.573Z,25.93
2017-11-10T02:51:38.556Z,24.33
2017-11-10T02:54:06.442Z,26.13
2017-11-10T02:56:34.379Z,23.50
2017-11-10T02:59:02.291Z,26.80
2017-11-10T03:01:30.188Z,25.20
2017-11-10T03:03:58.044Z,25.03
2017-11-10T03:06:26.671Z,26.43
2017-11-10T03:08:54.574Z,24.80
2017-11-10T03:11:22.430Z,26.20
2017-11-10T03:13:50.490Z,24.77
2017-11-10T03:16:18.420Z,26.40
2017-11-10T03:18:47.068Z,26.37
2017-11-10T03:21:14.922Z,26.57
2017-11-10T03:23:42.845Z,26.83
2017-11-10T03:26:10.770Z,26.80
2017-11-10T03:28:38.692Z,29.33
2017-11-10T03:31:06.574Z,24.50
2017-11-10T03:33:34.517Z,26.87
2017-11-10T03:36:02.543Z,27.90
2017-11-10T03:38:30.440Z,28.17
2017-11-10T03:40:58.310Z,26.80
2017-11-10T03:43:26.207Z,27.70
2017-11-10T03:45:54.195Z,30.60
2017-11-10T03:48:22.084Z,29.23
2017-11-10T03:50:50.033Z,29.33
2017-11-10T03:53:17.866Z,30.10
2017-11-10T03:55:45.736Z,29.70
2017-11-10T03:58:13.633Z,29.33
2017-11-10T04:00:41.544Z,28.50
2017-11-10T04:03:09.447Z,30.97
2017-11-10T04:05:37.292Z,28.13
2017-11-10T04:08:05.237Z,30.00
2017-11-10T04:10:33.099Z,30.90
2017-11-10T04:13:01.100Z,31.37
2017-11-10T04:15:28.996Z,32.30
2017-11-10T04:17:56.829Z,31.27
2017-11-10T04:20:24.691Z,27.40
2017-11-10T04:22:52.572Z,29.63
2017-11-10T04:25:20.412Z,32.97
2017-11-10T04:27:48.347Z,31.93
2017-11-10T04:30:16.186Z,29.60
2017-11-10T04:32:44.032Z,30.60
2017-11-10T04:35:11.889Z,32.40
2017-11-10T04:37:39.858Z,31.93
2017-11-10T04:40:07.733Z,31.40
2017-11-10T04:42:35.705Z,33.10
2017-11-10T04:45:04.373Z,31.17
2017-11-10T04:47:32.165Z,33.37
2017-11-10T04:50:00.004Z,32.43
2017-11-10T04:52:28.569Z,31.33
2017-11-10T04:54:56.522Z,32.67
2017-11-10T04:57:24.364Z,31.13
2017-11-10T04:59:52.253Z,34.63
2017-11-10T05:02:20.123Z,33.97
2017-11-10T05:04:47.987Z,30.67
2017-11-10T05:07:15.856Z,33.43
2017-11-10T05:09:43.763Z,34.00
2017-11-10T05:12:11.683Z,32.70
2017-11-10T05:14:39.538Z,34.10
2017-11-10T05:17:07.401Z,34.23
2017-11-10T05:19:35.326Z,32.90
2017-11-10T05:22:03.261Z,32.63
2017-11-10T05:24:31.122Z,29.50
2017-11-10T05:26:59.027Z,34.63
2017-11-10T05:29:26.952Z,31.73
2017-11-10T05:31:54.817Z,31.60
2017-11-10T05:34:22.827Z,34.10
2017-11-10T05:36:51.622Z,34.90
2017-11-10T05:39:19.642Z,31.43
2017-11-10T05:41:47.629Z,33.43
2017-11-10T05:44:15.599Z,31.30
2017-11-10T05:46:44.258Z,31.30
2017-11-10T05:49:12.711Z,32.10
2017-11-10T05:51:40.638Z,30.50
2017-11-10T05:54:30.379Z,33.20
2017-11-10T06:16:39.549Z,38.40
2017-11-10T06:19:07.445Z,32.50
2017-11-10T06:21:35.406Z,32.63
2017-11-10T06:24:03.437Z,31.13
2017-11-10T06:26:31.295Z,29.70
2017-11-10T06:28:59.184Z,31.30
2017-11-10T06:31:28.311Z,33.10
2017-11-10T06:33:56.197Z,32.30
2017-11-10T06:36:24.864Z,31.47
2017-11-10T06:38:52.721Z,31.97
2017-11-10T06:41:20.628Z,31.63
2017-11-10T06:43:48.601Z,32.80
2017-11-10T06:46:16.565Z,35.10
2017-11-10T06:48:44.339Z,34.00
2017-11-10T06:51:13.066Z,35.20
2017-11-10T06:53:40.915Z,37.03
2017-11-10T06:56:08.841Z,38.77
2017-11-10T06:58:36.829Z,39.60
2017-11-10T07:01:23.162Z,41.80
2017-11-10T07:04:01.550Z,39.50
2017-11-10T07:09:06.831Z,40.17
2017-11-10T07:11:35.557Z,38.87
2017-11-10T07:14:03.520Z,41.67
2017-11-10T07:16:31.335Z,42.00
2017-11-10T07:18:59.199Z,38.00
2017-11-10T07:21:27.050Z,39.17
2017-11-10T07:23:54.900Z,38.40
2017-11-10T07:26:22.784Z,37.40
2017-11-10T07:28:50.684Z,39.67
2017-11-10T07:31:18.482Z,38.17
2017-11-10T07:33:46.423Z,37.17
2017-11-10T07:36:14.348Z,37.27
2017-11-10T07:38:42.226Z,37.73
2017-11-10T07:41:10.116Z,37.20
2017-11-10T07:43:37.933Z,36.93
2017-11-10T07:46:05.779Z,37.70
2017-11-10T07:48:33.637Z,37.70
2017-11-10T07:51:01.437Z,36.83
2017-11-10T07:53:29.372Z,33.43
2017-11-10T07:55:57.165Z,33.60
2017-11-10T07:58:25.018Z,33.20
2017-11-10T08:00:53.805Z,34.40
2017-11-10T08:03:22.471Z,34.60
2017-11-10T08:05:50.332Z,34.33
2017-11-10T08:08:18.218Z,34.50
2017-11-10T08:10:46.083Z,32.23
2017-11-10T08:13:13.949Z,31.77
2017-11-10T08:15:41.762Z,30.60
2017-11-10T08:18:09.534Z,31.00
2017-11-10T08:20:37.327Z,30.00
2017-11-10T08:23:05.233Z,30.90
2017-11-10T08:25:33.178Z,31.50
2017-11-10T08:28:01.005Z,29.60
2017-11-10T08:30:28.867Z,30.70
2017-11-10T08:32:57.445Z,28.70
2017-11-10T08:35:25.239Z,32.60
2017-11-10T08:37:53.063Z,30.07
2017-11-10T08:40:20.838Z,30.53
2017-11-10T08:42:48.615Z,31.07
2017-11-10T08:45:17.182Z,31.63
2017-11-10T08:47:45.008Z,33.23
2017-11-10T08:50:12.844Z,31.50
2017-11-10T08:52:40.667Z,31.37
2017-11-10T08:55:08.498Z,31.37
2017-11-10T08:57:36.347Z,34.23
2017-11-10T09:00:04.969Z,34.33
2017-11-10T09:02:32.845Z,31.87
2017-11-10T09:05:00.721Z,34.30
2017-11-10T09:07:28.607Z,34.00
2017-11-10T09:09:56.443Z,34.60
2017-11-10T09:12:24.302Z,34.03
2017-11-10T09:14:52.208Z,33.33
2017-11-10T09:17:20.060Z,37.70
2017-11-10T09:19:47.931Z,37.70
2017-11-10T09:22:15.856Z,35.43
2017-11-10T09:24:43.807Z,35.03
2017-11-10T09:27:17.305Z,34.90
2017-11-10T09:29:48.863Z,32.20
2017-11-10T09:45:57.561Z,31.23
2017-11-10T09:48:31.074Z,31.63
2017-11-10T09:51:04.594Z,32.50
2017-11-10T09:53:38.057Z,30.70
2017-11-10T09:56:11.402Z,31.87
2017-11-10T09:58:57.908Z,32.47
2017-11-10T10:01:42.672Z,31.00
2017-11-10T10:04:26.176Z,31.47
2017-11-10T10:06:59.695Z,30.63
2017-11-10T10:09:33.181Z,31.37
2017-11-10T10:12:15.953Z,30.43
2017-11-10T10:14:59.412Z,32.07
2017-11-10T10:30:47.760Z,31.17
2017-11-10T10:33:15.612Z,29.93
2017-11-10T10:35:43.455Z,31.13
2017-11-10T10:38:12.194Z,32.20
2017-11-10T10:40:40.106Z,30.77
2017-11-10T10:43:08.071Z,31.70
2017-11-10T10:45:35.972Z,31.50
2017-11-10T10:48:03.771Z,30.30
2017-11-10T10:50:31.686Z,30.50
2017-11-10T10:52:59.593Z,34.10
2017-11-10T10:55:27.433Z,31.43
2017-11-10T10:57:56.039Z,32.87
2017-11-10T11:00:23.931Z,35.33
2017-11-10T11:02:51.717Z,30.73
2017-11-10T11:05:19.559Z,33.60
2017-11-10T11:07:47.527Z,28.10
2017-11-10T11:10:15.418Z,32.67
2017-11-10T11:12:43.268Z,33.10
2017-11-10T11:15:11.179Z,31.13
2017-11-10T11:17:39.029Z,30.67
2017-11-10T11:20:06.932Z,29.70
2017-11-10T11:22:35.670Z,30.70
2017-11-10T11:25:03.564Z,28.70
2017-11-10T11:27:31.423Z,30.17
2017-11-10T11:29:59.317Z,30.60
2017-11-10T11:32:27.244Z,30.83
2017-11-10T11:34:55.079Z,27.13
2017-11-10T11:37:23.718Z,28.30
2017-11-10T11:39:51.521Z,31.60
2017-11-10T11:42:20.128Z,27.90
2017-11-10T11:44:48.053Z,29.50
2017-11-10T11:47:16.006Z,31.50
2017-11-10T11:49:44.653Z,30.67
2017-11-10T11:52:12.588Z,30.70
2017-11-10T11:54:40.470Z,26.20
2017-11-10T11:57:08.363Z,27.37
2017-11-10T11:59:36.276Z,27.20
2017-11-10T12:02:04.195Z,30.80
2017-11-10T12:04:32.922Z,29.70
2017-11-10T12:07:00.867Z,30.47
2017-11-10T12:09:28.744Z,28.60
2017-11-10T12:11:56.713Z,29.20
2017-11-10T12:14:24.624Z,30.70
2017-11-10T12:16:52.462Z,30.33
2017-11-10T12:19:20.340Z,29.50
2017-11-10T12:21:48.251Z,28.53
2017-11-10T12:24:16.191Z,28.40
2017-11-10T12:26:44.166Z,27.07
2017-11-10T12:29:12.094Z,27.10
2017-11-10T12:31:40.054Z,28.33
2017-11-10T12:34:07.960Z,26.93
2017-11-10T12:36:35.790Z,27.20
2017-11-10T12:39:03.736Z,29.50
2017-11-10T12:41:31.660Z,29.30
2017-11-10T12:43:59.492Z,27.87
2017-11-10T12:46:27.340Z,27.97
2017-11-10T12:48:55.135Z,28.83
2017-11-10T12:51:23.789Z,27.83
2017-11-10T12:53:51.658Z,27.63
2017-11-10T12:56:19.708Z,29.23
2017-11-10T12:58:47.567Z,26.00
2017-11-10T13:01:15.373Z,28.50
2017-11-10T13:03:43.290Z,28.70
2017-11-10T13:06:11.186Z,29.53
2017-11-10T13:08:39.069Z,28.50
2017-11-10T13:11:06.892Z,32.37
2017-11-10T13:13:34.707Z,29.07
2017-11-10T13:16:02.481Z,30.20
2017-11-10T13:18:30.377Z,26.60
2017-11-10T13:20:58.285Z,26.13
2017-11-10T13:23:26.306Z,25.20
2017-11-10T13:25:54.208Z,27.87
2017-11-10T13:28:22.085Z,28.00
2017-11-10T13:30:49.895Z,28.60
2017-11-10T13:33:17.705Z,29.17
2017-11-10T13:35:46.234Z,28.60
2017-11-10T13:38:14.007Z,28.83
2017-11-10T13:40:41.943Z,30.77
2017-11-10T13:43:09.915Z,31.33
2017-11-10T13:45:37.732Z,28.70
2017-11-10T13:48:06.903Z,29.20
2017-11-10T13:50:34.865Z,30.07
2017-11-10T13:53:02.641Z,28.97
2017-11-10T13:55:30.430Z,29.57
2017-11-10T13:57:58.222Z,28.43
2017-11-10T14:00:26.100Z,30.37
2017-11-10T14:02:53.942Z,27.60
2017-11-10T14:05:21.920Z,29.00
2017-11-10T14:07:49.851Z,29.07
2017-11-10T14:10:17.733Z,29.30
2017-11-10T14:12:45.518Z,30.83
2017-11-10T14:15:13.361Z,32.30
2017-11-10T14:17:41.280Z,30.73
2017-11-10T14:20:09.135Z,30.90
2017-11-10T14:22:36.931Z,31.07
2017-11-10T14:25:04.713Z,29.37
2017-11-10T14:27:32.542Z,29.53
2017-11-10T14:30:00.352Z,27.10
2017-11-10T14:32:28.329Z,30.07
2017-11-10T14:34:56.185Z,28.40
2017-11-10T14:37:23.980Z,27.97
2017-11-10T14:39:51.792Z,31.17
2017-11-10T14:42:19.561Z,30.17
2017-11-10T14:44:47.525Z,30.20
2017-11-10T14:47:15.442Z,29.77
2017-11-10T14:49:43.249Z,30.40
2017-11-10T14:52:11.037Z,30.07
2017-11-10T14:54:38.841Z,31.23
2017-11-10T14:57:06.739Z,33.80
2017-11-10T14:59:36.407Z,31.20
2017-11-10T15:02:04.399Z,33.40
2017-11-10T15:04:32.321Z,34.03
2017-11-10T15:07:00.109Z,32.97
2017-11-10T15:09:27.877Z,30.80
2017-11-10T15:11:55.694Z,32.77
2017-11-10T15:14:23.599Z,30.77
2017-11-10T15:16:57.321Z,30.67
2017-11-10T15:19:25.107Z,33.07
2017-11-10T15:21:52.965Z,34.13
2017-11-10T15:24:21.663Z,34.43
2017-11-10T15:26:49.465Z,30.57
2017-11-10T15:29:17.316Z,33.07
2017-11-10T15:31:45.236Z,33.60
2017-11-10T15:34:13.908Z,33.93
2017-11-10T15:36:41.718Z,35.17
2017-11-10T15:39:11.518Z,33.93
2017-11-10T15:41:40.943Z,32.67
2017-11-10T15:44:09.213Z,30.13
2017-11-10T15:46:37.135Z,31.30
2017-11-10T15:49:07.881Z,32.87
2017-11-10T16:07:38.592Z,34.43
2017-11-10T16:10:06.470Z,36.27
2017-11-10T16:12:34.390Z,32.60
2017-11-10T16:15:02.260Z,33.17
2017-11-10T16:17:33.819Z,32.43
2017-11-10T16:20:01.689Z,31.90
2017-11-10T16:22:29.594Z,32.30
2017-11-10T16:24:57.459Z,33.63
2017-11-10T16:27:27.933Z,32.00
2017-11-10T16:29:58.367Z,30.97
2017-11-10T16:32:33.897Z,32.07
2017-11-10T16:35:01.976Z,33.40
2017-11-10T16:37:29.830Z,32.57
2017-11-10T16:39:57.757Z,34.17
2017-11-10T16:42:26.397Z,32.87
2017-11-10T16:44:54.384Z,34.00
2017-11-10T16:47:28.965Z,34.90
2017-11-10T16:49:56.773Z,32.90
2017-11-10T16:52:24.646Z,33.40
2017-11-10T16:54:52.524Z,32.43
2017-11-10T16:57:20.372Z,34.00
2017-11-10T16:59:48.239Z,32.07
2017-11-10T17:02:16.199Z,32.10
2017-11-10T17:04:44.072Z,35.27
2017-11-10T17:07:11.897Z,34.27
2017-11-10T17:09:39.866Z,32.40
2017-11-10T17:12:07.837Z,34.97
2017-11-10T17:14:35.764Z,37.30
2017-11-10T17:17:03.692Z,32.47
2017-11-10T17:19:31.608Z,34.83
2017-11-10T17:21:59.480Z,36.33
2017-11-10T17:24:27.342Z,34.23
2017-11-10T17:26:55.238Z,34.13
2017-11-10T17:29:24.197Z,33.70
2017-11-10T17:31:52.044Z,33.40
2017-11-10T17:34:19.972Z,34.90
2017-11-10T17:36:47.842Z,34.07
2017-11-10T17:39:15.719Z,32.63
2017-11-10T17:41:43.773Z,33.83
2017-11-10T17:44:14.536Z,34.60
2017-11-10T17:46:45.842Z,34.50
2017-11-10T17:49:17.281Z,32.87
2017-11-10T17:51:45.483Z,33.43
2017-11-10T17:54:13.423Z,37.37
2017-11-10T17:56:41.500Z,34.83
2017-11-10T17:59:11.801Z,36.80
2017-11-10T18:01:39.993Z,34.67
2017-11-10T18:04:07.852Z,33.93
2017-11-10T18:06:37.720Z,34.77
2017-11-10T18:25:22.825Z,36.93
2017-11-10T18:27:53.761Z,39.77
2017-11-10T18:30:21.901Z,35.60
2017-11-10T18:32:52.388Z,37.37
2017-11-10T18:41:16.329Z,35.07
2017-11-10T18:43:52.153Z,34.63
2017-11-10T18:46:21.798Z,35.50
2017-11-10T18:48:55.377Z,36.90
2017-11-10T18:51:24.170Z,36.90
2017-11-10T18:53:52.176Z,37.77
2017-11-10T18:56:20.963Z,40.10
2017-11-10T18:58:48.839Z,37.10
2017-11-10T19:01:16.923Z,37.60
2017-11-10T19:03:44.934Z,36.57
2017-11-10T19:06:12.827Z,36.63
2017-11-10T19:08:40.868Z,35.23
2017-11-10T19:11:08.853Z,35.23
2017-11-10T19:13:37.553Z,36.10
2017-11-10T19:16:06.717Z,35.53
2017-11-10T19:18:36.655Z,35.43
2017-11-10T19:21:04.607Z,36.13
2017-11-10T19:23:49.551Z,34.80
2017-11-10T19:26:17.480Z,36.67
2017-11-10T19:28:45.320Z,38.07
2017-11-10T19:31:13.330Z,38.47
2017-11-10T19:33:41.295Z,38.30
2017-11-10T19:36:09.199Z,36.37
2017-11-10T19:38:37.075Z,37.60
2017-11-10T19:41:06.571Z,37.47
2017-11-10T19:43:34.430Z,37.30
2017-11-10T19:46:03.070Z,39.20
2017-11-10T19:48:30.936Z,39.40
2017-11-10T19:50:58.846Z,38.13
2017-11-10T19:53:26.743Z,40.53
2017-11-10T19:55:54.537Z,37.93
2017-11-10T19:58:22.686Z,37.33
2017-11-10T20:00:50.507Z,39.93
2017-11-10T20:03:18.346Z,35.70
2017-11-10T20:05:46.313Z,36.20
2017-11-10T20:08:14.441Z,35.37
2017-11-10T20:10:42.339Z,34.60
2017-11-10T20:13:10.713Z,33.30
2017-11-10T20:15:39.682Z,34.13
2017-11-10T20:18:07.607Z,34.53
2017-11-10T20:20:35.508Z,32.77
2017-11-10T20:23:04.258Z,32.70
2017-11-10T20:25:32.653Z,32.20
2017-11-10T20:28:00.814Z,33.40
2017-11-10T20:30:29.259Z,32.30
2017-11-10T20:32:58.038Z,31.50
2017-11-10T20:35:25.992Z,33.03
2017-11-10T20:37:54.062Z,31.70
2017-11-10T20:40:22.837Z,30.27
2017-11-10T20:42:51.098Z,31.60
2017-11-10T20:45:19.247Z,31.90
2017-11-10T20:47:47.357Z,32.40
2017-11-10T20:50:15.234Z,32.00
2017-11-10T20:52:43.020Z,31.53
2017-11-10T20:55:10.841Z,31.47
2017-11-10T20:57:38.677Z,32.67
2017-11-10T21:00:06.474Z,31.67
2017-11-10T21:02:35.087Z,29.57
2017-11-10T21:05:02.881Z,27.23
2017-11-10T21:07:30.747Z,27.43
2017-11-10T21:09:58.675Z,28.57
2017-11-10T21:12:26.503Z,28.23
2017-11-10T21:14:54.270Z,28.13
2017-11-10T21:17:22.916Z,28.60
2017-11-10T21:19:50.723Z,29.37
2017-11-10T21:22:18.742Z,28.40
2017-11-10T21:24:46.527Z,28.43
2017-11-10T21:27:14.355Z,27.57
2017-11-10T21:29:42.938Z,29.23
2017-11-10T21:32:10.846Z,25.10
2017-11-10T21:34:39.000Z,26.23
2017-11-10T21:37:06.771Z,25.80
2017-11-10T21:39:34.602Z,25.33
2017-11-10T21:42:02.490Z,24.80
2017-11-10T21:44:30.356Z,25.97
2017-11-10T21:46:58.234Z,26.73
2017-11-10T21:49:26.014Z,26.23
2017-11-10T21:51:53.903Z,27.10
2017-11-10T21:54:21.832Z,23.63
2017-11-10T21:56:50.488Z,25.40
2017-11-10T21:59:18.495Z,23.67
2017-11-10T22:01:46.345Z,22.90
2017-11-10T22:04:14.121Z,22.50
2017-11-10T22:06:41.954Z,21.80
2017-11-10T22:09:09.818Z,22.13
2017-11-10T22:11:37.602Z,21.17
2017-11-10T22:14:05.479Z,21.50
2017-11-10T22:16:33.301Z,22.50
2017-11-10T22:19:01.120Z,22.17
2017-11-10T22:21:28.889Z,19.80
2017-11-10T22:23:56.713Z,21.33
2017-11-10T22:26:24.513Z,21.77
2017-11-10T22:28:52.389Z,21.00
2017-11-10T22:31:20.191Z,22.00
2017-11-10T22:33:47.967Z,21.27
2017-11-10T22:36:15.904Z,21.50
2017-11-10T22:38:43.741Z,21.63
2017-11-10T22:41:11.506Z,20.00
2017-11-10T22:43:39.402Z,19.50
2017-11-10T22:46:07.171Z,19.80
2017-11-10T22:48:35.785Z,19.50
2017-11-10T22:51:03.696Z,21.23
2017-11-10T22:53:31.534Z,20.07
2017-11-10T22:55:59.367Z,18.57
2017-11-10T22:58:27.122Z,20.23
2017-11-10T23:00:54.961Z,18.27
2017-11-10T23:03:24.085Z,18.47
2017-11-10T23:05:51.983Z,17.07
2017-11-10T23:08:19.882Z,18.00
2017-11-10T23:10:47.649Z,17.43
2017-11-10T23:13:15.558Z,17.37
2017-11-10T23:15:43.316Z,17.87
2017-11-10T23:18:11.139Z,17.40
2017-11-10T23:20:38.983Z,15.80
2017-11-10T23:23:07.494Z,17.40
2017-11-10T23:25:35.360Z,16.10
2017-11-10T23:28:03.247Z,17.90
2017-11-10T23:30:31.091Z,16.33
2017-11-10T23:32:59.091Z,17.50
2017-11-10T23:35:26.852Z,18.47
2017-11-10T23:37:54.671Z,16.00
2017-11-10T23:40:22.490Z,16.77
2017-11-10T23:42:50.251Z,16.80
2017-11-10T23:45:18.002Z,16.80
2017-11-10T23:47:45.831Z,17.13
2017-11-10T23:50:13.735Z,16.80
2017-11-10T23:52:42.320Z,16.33
2017-11-10T23:55:10.153Z,17.30
2017-11-10T23:57:37.923Z,15.53
